Kezdőlap
METAR-TAF:

METAR-TAF

Repülőterek :

Yap, Mikronézia

földrajzi szélesség: 09-29N, földrajzi hosszúság: 138-05E, magasság: 28 m

Jelenlegi meteorológiai megfigyelések

A jelentés 25 perccel ezelõtt készült, 16:50 UTC
Különbözõ irányokból fújó szél 6 kt
Hőmérséklet 28°C
Páratartalom 84%
Légköri nyomás 1007 hPa
Látótávolság: 19.3 km
Kevés felhő 1600 lábon
Szórványos felhőzet 13000 lábon
Borult 30000 lábon

METAR: PTYA 171650Z VRB06KT 12SM FEW016 SCT130 OVC300 28/25 A2975 RMK SLP074 T02780251

Idő: 03:15 (17:15 UTC)

Előrejelzés

A jelentés 5 órával és 55 perccel ezelõtt készült, 11:20 UTC
Az előrejelzés 17-én 12 óra UTC és 18-én 12 óra UTC között érvényes
Délnyugati szél 11 kt
Látótávolság: 10 km
Szórványos felhőzet 1600 lábon
Szakadozott felhőzet 13000 lábon
Borult 30000 lábon
Záporok a közelben

TAF: PTYA 171120Z 1712/1812 23011KT P6SM VCSH SCT016 BKN130 OVC300

Meteorológiai megfigyelések és előrejelzések több, mint 4000 repülőtéren (METAR és TAF jelentéseket).

A térképen piros és sárga pontok jelzik az elérhető meteorológiai állomásokat.

Mozgassa az egeret a pont fölött, hogy megjelenjen az állomás neve.

Azután kattintson az időjárási megfigyelések és előrejelzések megtekintéséhez.

A térkép megváltoztatása: kattintson a fekete keresztel jelölt zöld gombra ráközelítéshez, a vonallal jelölt zöld gombra távolításhoz, vagy a zöld nyilakra a szomszédos térképek eléréséhez.


METAR-TAF: